Time;durP1;ratioP1;P1;durP2;ratioP2;P2;SDS_P1;SDS_P2;PMS_P1;PMS_P2;Temp;Humidity;BMP_temperature;BMP_pressure;BME280_temperature;BME280_humidity;BME280_pressure;Samples;Min_cycle;Max_cycle;Signal;HPM_P1;HPM_P2
2022/11/15 00:00:46;;;;;;;13.50;8.88;;;;;;;;;;4990737;28;20039;-60
2022/11/15 00:03:14;;;;;;;15.80;9.15;;;;;;;;;;4974220;28;20038;-62
2022/11/15 00:05:40;;;;;;;14.82;8.85;;;;;;;;;;4981078;28;20088;-61
2022/11/15 00:08:05;;;;;;;13.85;8.55;;;;;;;;;;4973373;28;20114;-62
2022/11/15 00:10:31;;;;;;;16.38;8.85;;;;;;;;;;4978382;28;20033;-61
2022/11/15 00:12:56;;;;;;;13.95;8.80;;;;;;;;;;4980311;28;20337;-61
2022/11/15 00:15:21;;;;;;;14.00;8.95;;;;;;;;;;4994332;28;20034;-61
2022/11/15 00:17:50;;;;;;;12.90;8.43;;;;;;;;;;5024723;28;20031;-61
2022/11/15 00:20:18;;;;;;;15.18;9.32;;;;;;;;;;4985998;28;20046;-61
2022/11/15 00:22:44;;;;;;;13.25;8.70;;;;;;;;;;4972742;28;20129;-61
2022/11/15 00:25:09;;;;;;;11.77;7.93;;;;;;;;;;4991417;28;20113;-62
2022/11/15 00:27:35;;;;;;;13.32;8.45;;;;;;;;;;4990573;28;20043;-60
2022/11/15 00:30:00;;;;;;;13.98;8.60;;;;;;;;;;4972493;28;20526;-60
2022/11/15 00:32:26;;;;;;;13.23;8.75;;;;;;;;;;4982183;28;20105;-60
2022/11/15 00:34:51;;;;;;;13.80;8.70;;;;;;;;;;4988729;28;20030;-62
2022/11/15 00:37:17;;;;;;;12.50;8.45;;;;;;;;;;4973550;28;20539;-62
2022/11/15 00:39:42;;;;;;;11.48;8.05;;;;;;;;;;4970607;28;20045;-61
2022/11/15 00:42:07;;;;;;;12.85;8.43;;;;;;;;;;4973657;28;20031;-62
2022/11/15 00:44:33;;;;;;;16.92;8.73;;;;;;;;;;4981326;28;20034;-60
2022/11/15 00:46:58;;;;;;;12.55;8.55;;;;;;;;;;4980901;28;20035;-62
2022/11/15 00:49:23;;;;;;;15.43;8.65;;;;;;;;;;4979449;28;20402;-62
2022/11/15 00:51:49;;;;;;;13.15;8.32;;;;;;;;;;4972446;28;20030;-62
2022/11/15 00:54:14;;;;;;;13.50;8.70;;;;;;;;;;4978156;28;20031;-65
2022/11/15 00:56:39;;;;;;;17.20;8.98;;;;;;;;;;4977714;28;20109;-61
2022/11/15 00:59:05;;;;;;;13.35;8.52;;;;;;;;;;4976911;28;20507;-62
2022/11/15 01:01:30;;;;;;;15.38;9.32;;;;;;;;;;4976524;28;20042;-62
2022/11/15 01:03:56;;;;;;;13.43;8.63;;;;;;;;;;4972191;28;20034;-62
2022/11/15 01:06:21;;;;;;;13.23;8.50;;;;;;;;;;4971753;28;20448;-61
2022/11/15 01:08:46;;;;;;;13.30;8.50;;;;;;;;;;4972362;28;20037;-62
2022/11/15 01:11:12;;;;;;;15.55;8.30;;;;;;;;;;4979541;28;20069;-62
2022/11/15 01:13:39;;;;;;;13.60;7.97;;;;;;;;;;4973712;28;20117;-61
2022/11/15 01:16:13;;;;;;;12.27;8.13;;;;;;;;;;4981110;28;20527;-62
2022/11/15 01:18:39;;;;;;;15.05;8.45;;;;;;;;;;4991875;28;20035;-62
2022/11/15 01:21:10;;;;;;;11.57;8.02;;;;;;;;;;4981335;28;20066;-61
2022/11/15 01:23:36;;;;;;;10.98;8.00;;;;;;;;;;4972008;28;20035;-61
2022/11/15 01:26:03;;;;;;;13.70;8.65;;;;;;;;;;4975135;28;20588;-62
2022/11/15 01:28:33;;;;;;;16.23;8.85;;;;;;;;;;4974304;28;20027;-62
2022/11/15 01:31:03;;;;;;;14.10;8.43;;;;;;;;;;4981999;28;20042;-62
2022/11/15 01:33:29;;;;;;;14.35;8.43;;;;;;;;;;4972276;28;20057;-62
2022/11/15 01:35:54;;;;;;;12.65;7.78;;;;;;;;;;4978233;28;20156;-61
2022/11/15 01:38:20;;;;;;;11.85;7.68;;;;;;;;;;4972343;28;20084;-61
2022/11/15 01:40:45;;;;;;;12.75;8.05;;;;;;;;;;4979526;28;20035;-62
2022/11/15 01:43:29;;;;;;;11.85;8.05;;;;;;;;;;4966946;28;20046;-60
2022/11/15 01:46:20;;;;;;;13.70;8.20;;;;;;;;;;4980697;28;20057;-60
2022/11/15 01:48:46;;;;;;;13.82;7.68;;;;;;;;;;4965649;28;20043;-61
2022/11/15 01:51:15;;;;;;;11.73;7.30;;;;;;;;;;4970673;28;20050;-60
2022/11/15 01:53:45;;;;;;;13.45;7.65;;;;;;;;;;4981995;28;20057;-60
2022/11/15 01:56:18;;;;;;;11.40;7.30;;;;;;;;;;4971263;28;20041;-60
2022/11/15 01:58:45;;;;;;;12.48;7.72;;;;;;;;;;4974278;28;20077;-60
2022/11/15 02:01:12;;;;;;;13.77;7.90;;;;;;;;;;4991078;28;20073;-60
2022/11/15 02:03:59;;;;;;;10.88;6.93;;;;;;;;;;4979204;28;20070;-60
2022/11/15 02:06:24;;;;;;;14.30;7.72;;;;;;;;;;4972622;28;20104;-61
2022/11/15 02:08:50;;;;;;;12.02;6.88;;;;;;;;;;4975025;28;20035;-61
2022/11/15 02:11:16;;;;;;;10.63;7.00;;;;;;;;;;4976321;28;20168;-62
2022/11/15 02:13:42;;;;;;;11.07;6.45;;;;;;;;;;4975992;28;20109;-62
2022/11/15 02:16:12;;;;;;;11.65;7.22;;;;;;;;;;4984767;28;20041;-60
2022/11/15 02:18:44;;;;;;;13.13;7.05;;;;;;;;;;4991766;28;20106;-62
2022/11/15 02:21:33;;;;;;;13.05;6.82;;;;;;;;;;4989199;28;20042;-61
2022/11/15 02:24:10;;;;;;;11.65;6.45;;;;;;;;;;4979753;28;20031;-62
2022/11/15 02:26:43;;;;;;;10.15;6.03;;;;;;;;;;4988681;28;20058;-61
2022/11/15 02:29:13;;;;;;;10.00;6.38;;;;;;;;;;5003735;28;20392;-61
2022/11/15 02:31:45;;;;;;;13.15;6.20;;;;;;;;;;4971539;28;20063;-61
2022/11/15 02:35:05;;;;;;;10.50;6.35;;;;;;;;;;4986062;28;20034;-61
2022/11/15 02:37:43;;;;;;;9.60;6.03;;;;;;;;;;4973346;28;20047;-61
2022/11/15 02:40:16;;;;;;;8.63;6.13;;;;;;;;;;4970359;28;20487;-61
2022/11/15 02:45:40;;;;;;;9.50;6.35;;;;;;;;;;4973565;28;20049;-61
2022/11/15 02:48:06;;;;;;;9.90;6.05;;;;;;;;;;4991428;28;20554;-61
2022/11/15 02:50:33;;;;;;;10.70;5.70;;;;;;;;;;4981818;28;20113;-61
2022/11/15 02:52:58;;;;;;;9.00;5.65;;;;;;;;;;4991855;28;20058;-61
2022/11/15 02:55:33;;;;;;;8.23;5.53;;;;;;;;;;4983956;28;20113;-61
2022/11/15 02:58:06;;;;;;;8.63;5.30;;;;;;;;;;4977329;28;20488;-61
2022/11/15 03:00:39;;;;;;;9.27;5.80;;;;;;;;;;4985109;28;20046;-65
2022/11/15 03:03:27;;;;;;;9.90;5.40;;;;;;;;;;4974088;28;20043;-61
2022/11/15 03:06:08;;;;;;;10.82;5.20;;;;;;;;;;4991163;28;20054;-61
2022/11/15 03:08:47;;;;;;;9.75;5.50;;;;;;;;;;4974824;28;20345;-61
2022/11/15 03:11:15;;;;;;;10.43;5.45;;;;;;;;;;4976270;28;20041;-61
2022/11/15 03:14:09;;;;;;;9.38;5.53;;;;;;;;;;4992804;28;20045;-61
2022/11/15 03:16:39;;;;;;;11.15;5.68;;;;;;;;;;4979892;28;20047;-61
2022/11/15 03:19:25;;;;;;;13.30;5.47;;;;;;;;;;4990866;28;20030;-60
2022/11/15 03:21:52;;;;;;;9.85;5.88;;;;;;;;;;4993950;28;20030;-61
2022/11/15 03:24:19;;;;;;;9.13;5.25;;;;;;;;;;4990576;28;20042;-60
2022/11/15 03:26:47;;;;;;;9.95;5.53;;;;;;;;;;4982502;28;20081;-60
2022/11/15 03:29:17;;;;;;;10.57;5.65;;;;;;;;;;4983891;28;20424;-60
2022/11/15 03:31:56;;;;;;;9.93;5.60;;;;;;;;;;4977019;28;20035;-61
2022/11/15 03:34:31;;;;;;;10.05;5.72;;;;;;;;;;4986396;28;20038;-60
2022/11/15 03:36:57;;;;;;;9.25;5.53;;;;;;;;;;4990081;28;20034;-61
2022/11/15 03:39:23;;;;;;;9.43;5.55;;;;;;;;;;4985966;28;20042;-61
2022/11/15 03:42:09;;;;;;;9.80;5.60;;;;;;;;;;4980793;28;20412;-62
2022/11/15 03:44:37;;;;;;;9.90;5.95;;;;;;;;;;4975440;28;20062;-61
2022/11/15 03:47:08;;;;;;;8.77;6.10;;;;;;;;;;4972878;28;20059;-61
2022/11/15 03:49:35;;;;;;;12.93;6.07;;;;;;;;;;4986560;28;20049;-61
2022/11/15 03:52:03;;;;;;;11.20;6.43;;;;;;;;;;4982754;28;20498;-61
2022/11/15 03:54:29;;;;;;;11.50;5.95;;;;;;;;;;4978053;28;20034;-61
2022/11/15 03:56:54;;;;;;;11.40;6.72;;;;;;;;;;4989062;28;20038;-61
2022/11/15 03:59:19;;;;;;;8.93;6.10;;;;;;;;;;4988038;28;20165;-63
2022/11/15 04:01:45;;;;;;;9.52;5.95;;;;;;;;;;4973506;28;20038;-63
2022/11/15 04:04:10;;;;;;;12.43;6.20;;;;;;;;;;4982386;28;21554;-62
2022/11/15 04:06:36;;;;;;;9.88;6.13;;;;;;;;;;4994252;28;20035;-61
2022/11/15 04:09:01;;;;;;;10.90;6.22;;;;;;;;;;4986114;28;20502;-62
2022/11/15 04:11:26;;;;;;;10.32;6.50;;;;;;;;;;4979406;28;20121;-61
2022/11/15 04:13:52;;;;;;;9.90;6.50;;;;;;;;;;4991986;28;20475;-62
2022/11/15 04:16:17;;;;;;;10.13;6.30;;;;;;;;;;4985865;28;20121;-61
2022/11/15 04:18:43;;;;;;;9.82;6.30;;;;;;;;;;4993100;28;20066;-62
2022/11/15 04:26:36;;;;;;;10.15;6.10;;;;;;;;;;4973259;28;20088;-62
2022/11/15 04:31:45;;;;;;;11.23;6.35;;;;;;;;;;4983474;28;20124;-62
2022/11/15 04:34:11;;;;;;;9.65;6.30;;;;;;;;;;4973937;28;20491;-62
2022/11/15 04:39:20;;;;;;;10.40;6.30;;;;;;;;;;4980045;28;20090;-62
2022/11/15 04:41:45;;;;;;;10.75;6.30;;;;;;;;;;4977070;28;20038;-60
2022/11/15 04:44:11;;;;;;;10.15;6.38;;;;;;;;;;4973511;28;20126;-62
2022/11/15 04:46:36;;;;;;;9.10;6.15;;;;;;;;;;4973106;28;20046;-61
2022/11/15 04:49:02;;;;;;;8.88;5.60;;;;;;;;;;4972246;28;20302;-62
2022/11/15 04:51:27;;;;;;;9.38;6.20;;;;;;;;;;4977871;28;20176;-66
2022/11/15 04:53:52;;;;;;;8.70;5.95;;;;;;;;;;4991337;28;20455;-62
2022/11/15 04:56:18;;;;;;;8.40;5.65;;;;;;;;;;4988329;28;20030;-61
2022/11/15 04:58:43;;;;;;;9.73;5.85;;;;;;;;;;4977189;28;20053;-62
2022/11/15 05:01:14;;;;;;;9.55;5.93;;;;;;;;;;4991552;28;20460;-62
2022/11/15 05:06:24;;;;;;;9.73;5.70;;;;;;;;;;4973181;28;20502;-61
2022/11/15 05:08:49;;;;;;;10.15;5.57;;;;;;;;;;4982159;28;20038;-60
2022/11/15 05:11:15;;;;;;;9.75;5.80;;;;;;;;;;4978626;28;20452;-60
2022/11/15 05:13:40;;;;;;;8.27;5.50;;;;;;;;;;4975293;28;20498;-60
2022/11/15 05:16:05;;;;;;;9.45;5.93;;;;;;;;;;4990178;28;20078;-60
2022/11/15 05:18:31;;;;;;;7.97;5.57;;;;;;;;;;4989275;28;20117;-60
2022/11/15 05:21:03;;;;;;;8.75;5.43;;;;;;;;;;4972199;28;20065;-61
2022/11/15 05:23:28;;;;;;;9.57;5.93;;;;;;;;;;4987793;28;20494;-62
2022/11/15 05:25:59;;;;;;;8.98;5.55;;;;;;;;;;4990891;28;20034;-61
2022/11/15 05:28:24;;;;;;;9.20;5.45;;;;;;;;;;4989436;28;20587;-62
2022/11/15 05:30:49;;;;;;;8.00;5.55;;;;;;;;;;4984841;28;20039;-61
2022/11/15 05:33:15;;;;;;;12.35;5.90;;;;;;;;;;4978416;28;20451;-61
2022/11/15 05:35:45;;;;;;;7.63;5.72;;;;;;;;;;4984091;28;20034;-61
2022/11/15 05:38:11;;;;;;;8.88;5.50;;;;;;;;;;4984806;28;20096;-60
2022/11/15 05:40:36;;;;;;;9.77;6.03;;;;;;;;;;4991729;28;20042;-60
2022/11/15 05:43:04;;;;;;;10.15;5.88;;;;;;;;;;4987913;28;20664;-61
2022/11/15 05:45:31;;;;;;;9.65;5.60;;;;;;;;;;4983360;28;20022;-60
2022/11/15 05:47:58;;;;;;;8.35;5.88;;;;;;;;;;4972441;28;20042;-60
2022/11/15 05:50:24;;;;;;;9.80;6.00;;;;;;;;;;4989535;28;20489;-60
2022/11/15 05:52:51;;;;;;;8.18;5.80;;;;;;;;;;5009279;28;20560;-60
2022/11/15 05:55:16;;;;;;;10.02;6.10;;;;;;;;;;4979450;28;20033;-60
2022/11/15 05:57:42;;;;;;;8.40;5.63;;;;;;;;;;4986551;28;20058;-60
2022/11/15 06:00:09;;;;;;;9.05;5.72;;;;;;;;;;4991145;28;20038;-62
2022/11/15 06:02:34;;;;;;;8.60;6.13;;;;;;;;;;4990866;28;20026;-61
2022/11/15 06:05:00;;;;;;;11.30;6.40;;;;;;;;;;5006425;28;20052;-61
2022/11/15 06:07:25;;;;;;;9.65;7.10;;;;;;;;;;4984679;28;20122;-61
2022/11/15 06:09:51;;;;;;;9.63;6.95;;;;;;;;;;4994078;28;20046;-61
2022/11/15 06:12:16;;;;;;;11.35;7.10;;;;;;;;;;4981695;28;20568;-62
2022/11/15 06:14:41;;;;;;;12.90;7.50;;;;;;;;;;4985051;28;20045;-62
2022/11/15 06:17:07;;;;;;;11.98;7.60;;;;;;;;;;5014657;28;20463;-62
2022/11/15 06:19:32;;;;;;;12.18;7.60;;;;;;;;;;4990769;28;20085;-67
2022/11/15 06:22:00;;;;;;;12.98;7.78;;;;;;;;;;4986999;28;20040;-62
2022/11/15 06:24:26;;;;;;;10.73;7.20;;;;;;;;;;4976525;28;20069;-62
2022/11/15 06:26:52;;;;;;;10.30;7.43;;;;;;;;;;4974355;28;20038;-63
2022/11/15 06:29:17;;;;;;;11.13;7.70;;;;;;;;;;4975907;28;20038;-63
2022/11/15 06:31:42;;;;;;;10.45;7.43;;;;;;;;;;4978878;28;20046;-64
2022/11/15 06:34:08;;;;;;;9.98;6.60;;;;;;;;;;4988164;28;20033;-63
2022/11/15 06:36:37;;;;;;;12.48;8.00;;;;;;;;;;4992895;28;20026;-64
2022/11/15 06:39:03;;;;;;;10.35;7.22;;;;;;;;;;4989071;28;20104;-62
2022/11/15 06:41:29;;;;;;;11.50;7.32;;;;;;;;;;4991137;28;20068;-62
2022/11/15 06:43:54;;;;;;;10.98;7.25;;;;;;;;;;4980445;28;20058;-62
2022/11/15 06:46:20;;;;;;;10.07;7.10;;;;;;;;;;5014666;28;20116;-61
2022/11/15 06:48:45;;;;;;;11.65;7.13;;;;;;;;;;4989451;28;20068;-62
2022/11/15 06:51:10;;;;;;;9.63;6.90;;;;;;;;;;4994615;28;20030;-66
2022/11/15 06:53:36;;;;;;;12.30;6.88;;;;;;;;;;4988968;28;20030;-66
2022/11/15 06:56:06;;;;;;;9.48;6.53;;;;;;;;;;4975814;28;20035;-65
2022/11/15 06:58:32;;;;;;;10.93;6.32;;;;;;;;;;4986437;28;20061;-64
2022/11/15 07:01:03;;;;;;;9.05;5.95;;;;;;;;;;4977439;28;20034;-63
2022/11/15 07:03:28;;;;;;;9.50;6.10;;;;;;;;;;4993963;28;20379;-62
2022/11/15 07:05:55;;;;;;;9.52;6.07;;;;;;;;;;4984886;28;20495;-63
2022/11/15 07:08:22;;;;;;;8.63;5.82;;;;;;;;;;4994750;28;20101;-63
2022/11/15 07:10:48;;;;;;;8.05;5.80;;;;;;;;;;4993368;28;20042;-64
2022/11/15 07:13:13;;;;;;;8.85;5.57;;;;;;;;;;4994682;28;20433;-64
2022/11/15 07:15:39;;;;;;;8.25;5.10;;;;;;;;;;4980010;28;20034;-64
2022/11/15 07:18:04;;;;;;;9.40;5.22;;;;;;;;;;4993887;28;20025;-64
2022/11/15 07:20:29;;;;;;;8.00;4.95;;;;;;;;;;4980904;28;20387;-65
2022/11/15 07:23:05;;;;;;;7.88;4.82;;;;;;;;;;4974336;28;20041;-64
2022/11/15 07:25:31;;;;;;;8.50;4.75;;;;;;;;;;4985803;28;20459;-64
2022/11/15 07:27:58;;;;;;;7.95;4.40;;;;;;;;;;4992412;28;20136;-65
2022/11/15 07:30:24;;;;;;;6.28;4.22;;;;;;;;;;4976131;28;20496;-63
2022/11/15 07:32:57;;;;;;;6.97;4.15;;;;;;;;;;4978948;28;20053;-64
2022/11/15 07:35:24;;;;;;;7.32;4.20;;;;;;;;;;4974838;28;20097;-66
2022/11/15 07:37:57;;;;;;;7.28;3.92;;;;;;;;;;4977575;28;20038;-65
2022/11/15 07:40:23;;;;;;;5.10;3.63;;;;;;;;;;4990466;28;20070;-66
2022/11/15 07:42:55;;;;;;;6.03;3.75;;;;;;;;;;4977182;28;20062;-67
2022/11/15 07:45:22;;;;;;;5.30;3.50;;;;;;;;;;4993685;28;20498;-65
2022/11/15 07:47:49;;;;;;;5.22;3.50;;;;;;;;;;4991155;28;20038;-66
2022/11/15 07:50:16;;;;;;;4.53;3.10;;;;;;;;;;4976822;28;20062;-66
2022/11/15 07:52:42;;;;;;;7.93;3.20;;;;;;;;;;4984869;28;20041;-66
2022/11/15 07:55:08;;;;;;;4.30;2.78;;;;;;;;;;4979699;28;20039;-66
2022/11/15 07:57:33;;;;;;;7.53;3.25;;;;;;;;;;4985910;28;20627;-65
2022/11/15 07:59:59;;;;;;;3.95;2.72;;;;;;;;;;4985568;28;20117;-66
2022/11/15 08:02:24;;;;;;;5.68;3.13;;;;;;;;;;4985312;28;20038;-64
2022/11/15 08:04:49;;;;;;;4.25;2.50;;;;;;;;;;4979171;28;20038;-64
2022/11/15 08:07:15;;;;;;;5.53;2.90;;;;;;;;;;4991192;28;20041;-65
2022/11/15 08:09:40;;;;;;;5.38;2.50;;;;;;;;;;4982796;28;20101;-65
2022/11/15 08:12:06;;;;;;;4.95;3.10;;;;;;;;;;4972868;28;20038;-66
2022/11/15 08:14:32;;;;;;;5.03;2.97;;;;;;;;;;4973045;28;20083;-65
2022/11/15 08:16:57;;;;;;;4.85;2.72;;;;;;;;;;4983795;28;20038;-64
2022/11/15 08:19:22;;;;;;;5.55;2.90;;;;;;;;;;4974989;28;20042;-65
2022/11/15 08:21:48;;;;;;;5.25;2.67;;;;;;;;;;5023492;28;20104;-66
2022/11/15 08:24:14;;;;;;;5.35;2.58;;;;;;;;;;4977344;28;20027;-65
2022/11/15 08:26:39;;;;;;;6.10;2.60;;;;;;;;;;4993621;28;20062;-65
2022/11/15 08:29:05;;;;;;;3.40;2.50;;;;;;;;;;4991728;28;20058;-64
2022/11/15 08:31:30;;;;;;;4.13;2.47;;;;;;;;;;4983461;28;20029;-64
2022/11/15 08:33:56;;;;;;;3.50;2.40;;;;;;;;;;4978036;28;20035;-65
2022/11/15 08:36:21;;;;;;;5.68;2.45;;;;;;;;;;4972989;28;20452;-66
2022/11/15 08:38:47;;;;;;;6.57;2.63;;;;;;;;;;4988031;28;20035;-67
2022/11/15 08:41:19;;;;;;;3.53;2.33;;;;;;;;;;4988251;28;20502;-66
2022/11/15 08:43:45;;;;;;;5.25;2.40;;;;;;;;;;4991849;28;20545;-65
2022/11/15 08:46:12;;;;;;;5.78;2.60;;;;;;;;;;4992953;28;20026;-65
2022/11/15 08:48:38;;;;;;;8.18;2.10;;;;;;;;;;4993096;28;20045;-64
2022/11/15 08:51:03;;;;;;;3.47;2.40;;;;;;;;;;4987904;28;20030;-65
2022/11/15 08:53:29;;;;;;;3.80;2.40;;;;;;;;;;4982428;28;20035;-65
2022/11/15 08:55:54;;;;;;;2.72;2.13;;;;;;;;;;4988573;28;20033;-65
2022/11/15 08:58:20;;;;;;;6.43;2.60;;;;;;;;;;5003491;28;20042;-65
2022/11/15 09:00:45;;;;;;;3.47;2.30;;;;;;;;;;4997499;28;20033;-65
2022/11/15 09:03:10;;;;;;;3.15;2.00;;;;;;;;;;4988577;28;20038;-65
2022/11/15 09:05:37;;;;;;;3.30;2.20;;;;;;;;;;4991390;28;20113;-65
2022/11/15 09:08:03;;;;;;;3.22;1.95;;;;;;;;;;4994580;28;20108;-63
2022/11/15 09:10:28;;;;;;;3.00;1.98;;;;;;;;;;4998371;28;20468;-65
2022/11/15 09:12:54;;;;;;;4.10;2.20;;;;;;;;;;4998450;28;20507;-64
2022/11/15 09:15:19;;;;;;;3.80;2.05;;;;;;;;;;4974709;28;20027;-64
2022/11/15 09:17:45;;;;;;;3.58;1.95;;;;;;;;;;5004597;28;20037;-62
2022/11/15 09:20:11;;;;;;;3.42;1.90;;;;;;;;;;5011706;28;20040;-64
2022/11/15 09:22:38;;;;;;;4.10;1.98;;;;;;;;;;5011972;28;20407;-64
2022/11/15 09:25:04;;;;;;;3.13;1.98;;;;;;;;;;4994109;28;20645;-64
2022/11/15 09:27:30;;;;;;;2.63;1.85;;;;;;;;;;4986859;28;20114;-64
2022/11/15 09:29:55;;;;;;;3.83;1.80;;;;;;;;;;5000673;28;20025;-63
2022/11/15 09:32:23;;;;;;;4.20;2.10;;;;;;;;;;4974383;28;20039;-64
2022/11/15 09:34:48;;;;;;;3.05;1.80;;;;;;;;;;4981533;28;20029;-64
2022/11/15 09:37:14;;;;;;;2.35;1.75;;;;;;;;;;5014566;28;20042;-63
2022/11/15 09:39:39;;;;;;;2.95;1.60;;;;;;;;;;4976508;28;20058;-64
2022/11/15 09:42:27;;;;;;;3.83;1.65;;;;;;;;;;4983073;28;20754;-64
2022/11/15 09:45:12;;;;;;;3.45;1.98;;;;;;;;;;4976937;28;20402;-64
2022/11/15 09:47:49;;;;;;;3.00;1.80;;;;;;;;;;4978600;28;20022;-66
2022/11/15 09:50:25;;;;;;;3.03;1.67;;;;;;;;;;4990718;28;20027;-66
2022/11/15 09:52:51;;;;;;;2.22;1.65;;;;;;;;;;4980375;28;20118;-65
2022/11/15 09:55:21;;;;;;;3.20;1.70;;;;;;;;;;4971448;28;20117;-66
2022/11/15 09:57:57;;;;;;;4.60;1.53;;;;;;;;;;4974307;28;20054;-65
2022/11/15 10:00:34;;;;;;;2.33;1.45;;;;;;;;;;4974486;28;20737;-63
2022/11/15 10:03:11;;;;;;;2.60;1.55;;;;;;;;;;4983496;28;20043;-63
2022/11/15 10:05:42;;;;;;;3.88;1.70;;;;;;;;;;4972428;28;20037;-66
2022/11/15 10:08:41;;;;;;;3.45;1.35;;;;;;;;;;4976313;28;20388;-66
2022/11/15 10:11:14;;;;;;;1.90;1.40;;;;;;;;;;4978342;28;20058;-66
2022/11/15 10:13:46;;;;;;;2.38;1.42;;;;;;;;;;4971609;28;20392;-66
2022/11/15 10:16:27;;;;;;;3.55;1.63;;;;;;;;;;4976014;28;20045;-65
2022/11/15 10:19:18;;;;;;;3.00;1.60;;;;;;;;;;4978957;28;20037;-65
2022/11/15 10:21:58;;;;;;;2.00;1.40;;;;;;;;;;4983866;28;20045;-66
2022/11/15 10:24:28;;;;;;;2.05;1.50;;;;;;;;;;4971336;28;20506;-64
2022/11/15 10:26:54;;;;;;;2.85;1.50;;;;;;;;;;4970729;28;20383;-64
2022/11/15 10:29:21;;;;;;;4.38;1.70;;;;;;;;;;4984291;28;20065;-64
2022/11/15 10:31:46;;;;;;;3.63;1.60;;;;;;;;;;4983455;28;20551;-64
2022/11/15 10:34:16;;;;;;;3.42;1.58;;;;;;;;;;4973224;28;20078;-66
2022/11/15 10:36:46;;;;;;;4.03;1.35;;;;;;;;;;4975219;28;20035;-65
2022/11/15 10:39:13;;;;;;;1.90;1.25;;;;;;;;;;4980740;28;20126;-64
2022/11/15 10:41:41;;;;;;;2.38;1.40;;;;;;;;;;4977448;28;20137;-64
2022/11/15 10:44:07;;;;;;;3.42;1.40;;;;;;;;;;4974665;28;20404;-64
2022/11/15 10:46:34;;;;;;;2.20;1.30;;;;;;;;;;4982661;28;20043;-66
2022/11/15 10:49:12;;;;;;;2.80;1.30;;;;;;;;;;4970702;28;20146;-66
2022/11/15 10:51:44;;;;;;;1.80;1.30;;;;;;;;;;4970866;28;20057;-66
2022/11/15 10:54:12;;;;;;;3.17;1.50;;;;;;;;;;4970743;28;20038;-65
2022/11/15 10:56:38;;;;;;;1.75;1.20;;;;;;;;;;4979317;28;20388;-65
2022/11/15 10:59:04;;;;;;;4.10;1.40;;;;;;;;;;4976953;28;20119;-64
2022/11/15 11:01:29;;;;;;;3.00;1.40;;;;;;;;;;4985827;28;20121;-65
2022/11/15 11:04:01;;;;;;;3.47;1.10;;;;;;;;;;4987474;28;20034;-65
2022/11/15 11:06:27;;;;;;;2.38;1.20;;;;;;;;;;4981247;28;20038;-66
2022/11/15 11:09:04;;;;;;;2.92;1.20;;;;;;;;;;4974347;28;20042;-65
2022/11/15 11:11:51;;;;;;;3.28;1.23;;;;;;;;;;4975782;28;20049;-64
2022/11/15 11:14:24;;;;;;;2.22;1.30;;;;;;;;;;4975583;28;20038;-65
2022/11/15 11:17:01;;;;;;;6.95;1.50;;;;;;;;;;4973437;28;20039;-65
2022/11/15 11:19:57;;;;;;;2.00;1.08;;;;;;;;;;4974434;28;20038;-62
2022/11/15 11:22:30;;;;;;;2.28;1.17;;;;;;;;;;4978464;28;20089;-63
2022/11/15 11:25:14;;;;;;;2.47;1.20;;;;;;;;;;4992098;28;20042;-62
2022/11/15 11:28:10;;;;;;;2.22;1.20;;;;;;;;;;4974292;28;20027;-64
2022/11/15 11:30:48;;;;;;;2.10;1.17;;;;;;;;;;4983024;28;20069;-62
2022/11/15 11:33:18;;;;;;;3.00;1.33;;;;;;;;;;4980046;28;20375;-62
2022/11/15 11:35:54;;;;;;;3.65;1.33;;;;;;;;;;4987373;28;20034;-62
2022/11/15 11:38:34;;;;;;;2.83;1.13;;;;;;;;;;4975733;28;20035;-60
2022/11/15 11:41:05;;;;;;;1.85;1.23;;;;;;;;;;4983644;28;20034;-60
2022/11/15 11:43:54;;;;;;;3.03;1.20;;;;;;;;;;4984507;28;20034;-61
2022/11/15 11:46:31;;;;;;;1.73;1.10;;;;;;;;;;4988219;28;20120;-60
2022/11/15 11:49:10;;;;;;;2.13;1.10;;;;;;;;;;4976808;28;20039;-61
2022/11/15 11:51:45;;;;;;;3.20;1.20;;;;;;;;;;4973428;28;20062;-61
2022/11/15 11:54:18;;;;;;;3.22;1.30;;;;;;;;;;4973699;28;20118;-61
2022/11/15 11:56:45;;;;;;;1.40;1.17;;;;;;;;;;4980634;28;20042;-61
2022/11/15 11:59:35;;;;;;;1.85;1.15;;;;;;;;;;4973922;28;20054;-63
2022/11/15 12:02:14;;;;;;;4.50;1.35;;;;;;;;;;4982750;28;20069;-62
2022/11/15 12:04:42;;;;;;;5.82;1.38;;;;;;;;;;4978484;28;20038;-63
2022/11/15 12:07:29;;;;;;;4.18;1.33;;;;;;;;;;4979471;28;20030;-64
2022/11/15 12:10:03;;;;;;;2.20;1.10;;;;;;;;;;4976199;28;20470;-64
2022/11/15 12:12:58;;;;;;;2.13;1.30;;;;;;;;;;4988209;28;20030;-64
2022/11/15 12:15:27;;;;;;;1.65;1.20;;;;;;;;;;4972973;28;20181;-63
2022/11/15 12:17:55;;;;;;;1.88;1.20;;;;;;;;;;4988628;28;20035;-64
2022/11/15 12:20:23;;;;;;;2.63;1.38;;;;;;;;;;4981342;28;20042;-64
2022/11/15 12:23:15;;;;;;;3.03;1.30;;;;;;;;;;4983952;28;20038;-64
2022/11/15 12:25:54;;;;;;;2.53;1.17;;;;;;;;;;4973016;28;20046;-64
2022/11/15 12:28:42;;;;;;;2.63;1.10;;;;;;;;;;4985142;28;20046;-64
2022/11/15 12:31:23;;;;;;;2.22;1.20;;;;;;;;;;4987569;28;20042;-63
2022/11/15 12:33:55;;;;;;;3.10;1.10;;;;;;;;;;4985357;28;20453;-62
2022/11/15 12:36:21;;;;;;;2.13;1.20;;;;;;;;;;4980647;28;20034;-63
2022/11/15 12:38:55;;;;;;;1.98;1.20;;;;;;;;;;4981625;28;20475;-62
2022/11/15 12:41:29;;;;;;;1.85;1.25;;;;;;;;;;4973987;28;20484;-63
2022/11/15 12:43:56;;;;;;;2.55;1.10;;;;;;;;;;4975988;28;20089;-62
2022/11/15 12:46:44;;;;;;;2.67;1.20;;;;;;;;;;4983391;28;20046;-62
2022/11/15 12:49:30;;;;;;;4.20;1.40;;;;;;;;;;4973394;28;20038;-63
2022/11/15 12:51:56;;;;;;;5.82;1.55;;;;;;;;;;4976753;28;20390;-63
2022/11/15 12:54:21;;;;;;;1.35;0.95;;;;;;;;;;4985977;28;20467;-64
2022/11/15 12:57:06;;;;;;;1.40;1.00;;;;;;;;;;4972780;28;20041;-62
2022/11/15 12:59:51;;;;;;;1.52;1.05;;;;;;;;;;4972643;28;20085;-62
2022/11/15 13:02:29;;;;;;;2.45;1.10;;;;;;;;;;4986571;28;20052;-63
2022/11/15 13:05:23;;;;;;;1.55;1.13;;;;;;;;;;4979135;28;20038;-63
2022/11/15 13:07:48;;;;;;;3.95;1.20;;;;;;;;;;4982881;28;20423;-62
2022/11/15 13:10:13;;;;;;;2.83;1.25;;;;;;;;;;4986422;28;20022;-62
2022/11/15 13:12:44;;;;;;;1.90;1.10;;;;;;;;;;4979824;28;20038;-62
2022/11/15 13:15:13;;;;;;;1.65;1.10;;;;;;;;;;4981025;28;20026;-63
2022/11/15 13:17:43;;;;;;;3.38;1.02;;;;;;;;;;4983038;28;20038;-61
2022/11/15 13:20:19;;;;;;;2.15;1.15;;;;;;;;;;4989686;28;20030;-63
2022/11/15 13:23:15;;;;;;;2.28;1.10;;;;;;;;;;4971443;28;20054;-64
2022/11/15 13:25:55;;;;;;;2.67;1.00;;;;;;;;;;4971089;28;20121;-64
2022/11/15 13:28:29;;;;;;;3.88;1.20;;;;;;;;;;4987575;28;20057;-63
2022/11/15 13:30:57;;;;;;;3.00;1.40;;;;;;;;;;4985382;28;20475;-63
2022/11/15 13:33:31;;;;;;;2.25;1.20;;;;;;;;;;4988574;28;20042;-62
2022/11/15 13:36:00;;;;;;;2.85;1.20;;;;;;;;;;4986340;28;20088;-63
2022/11/15 13:38:31;;;;;;;1.88;1.00;;;;;;;;;;4985119;28;20122;-64
2022/11/15 13:40:58;;;;;;;3.47;1.30;;;;;;;;;;4977914;28;20042;-63
2022/11/15 13:43:29;;;;;;;3.25;1.08;;;;;;;;;;4983223;28;20521;-66
2022/11/15 13:46:16;;;;;;;2.33;1.00;;;;;;;;;;4980618;28;20031;-66
2022/11/15 13:48:43;;;;;;;3.95;1.13;;;;;;;;;;4983313;28;20121;-66
2022/11/15 13:51:17;;;;;;;3.50;1.10;;;;;;;;;;4985195;28;20093;-64
2022/11/15 13:53:51;;;;;;;2.42;1.05;;;;;;;;;;4975548;28;20034;-66
2022/11/15 13:56:19;;;;;;;2.67;1.17;;;;;;;;;;4971927;28;20035;-64
2022/11/15 13:58:44;;;;;;;3.83;1.15;;;;;;;;;;4971362;28;20120;-64
2022/11/15 14:01:16;;;;;;;2.67;1.13;;;;;;;;;;4972163;28;20075;-65
2022/11/15 14:03:55;;;;;;;3.42;1.13;;;;;;;;;;4981080;28;20117;-64
2022/11/15 14:06:24;;;;;;;3.67;1.17;;;;;;;;;;4980444;28;20530;-64
2022/11/15 14:09:03;;;;;;;2.03;1.10;;;;;;;;;;4989171;28;20072;-65
2022/11/15 14:11:29;;;;;;;4.80;1.10;;;;;;;;;;4990785;28;20476;-64
2022/11/15 14:14:15;;;;;;;1.58;0.95;;;;;;;;;;4979636;28;20080;-65
2022/11/15 14:16:47;;;;;;;2.65;1.10;;;;;;;;;;4989694;28;20034;-64
2022/11/15 14:19:34;;;;;;;4.20;1.33;;;;;;;;;;4983583;28;20042;-65
2022/11/15 14:22:22;;;;;;;4.78;1.30;;;;;;;;;;4971709;28;20041;-64
2022/11/15 14:25:06;;;;;;;5.10;1.30;;;;;;;;;;4988236;28;20062;-65
2022/11/15 14:27:32;;;;;;;2.97;1.30;;;;;;;;;;4987260;28;20388;-64
2022/11/15 14:29:58;;;;;;;2.63;1.40;;;;;;;;;;4988219;28;20057;-64
2022/11/15 14:32:28;;;;;;;2.95;1.30;;;;;;;;;;4974075;28;20042;-64
2022/11/15 14:34:59;;;;;;;6.78;1.70;;;;;;;;;;4972001;28;20033;-63
2022/11/15 14:37:31;;;;;;;3.20;1.65;;;;;;;;;;4975732;28;20035;-63
2022/11/15 14:39:56;;;;;;;2.03;1.25;;;;;;;;;;4983354;28;20038;-63
2022/11/15 14:42:23;;;;;;;3.58;1.40;;;;;;;;;;4974114;28;20106;-65
2022/11/15 14:44:48;;;;;;;2.38;1.40;;;;;;;;;;4977155;28;20077;-64
2022/11/15 14:47:14;;;;;;;3.70;1.40;;;;;;;;;;4986471;28;20034;-63
2022/11/15 14:49:40;;;;;;;2.13;1.25;;;;;;;;;;4984314;28;20722;-65
2022/11/15 14:52:24;;;;;;;2.75;1.40;;;;;;;;;;4993841;28;20300;-65
2022/11/15 14:54:49;;;;;;;2.72;1.48;;;;;;;;;;4977780;28;20049;-66
2022/11/15 14:57:14;;;;;;;3.90;1.50;;;;;;;;;;4984366;28;20483;-65
2022/11/15 14:59:40;;;;;;;3.45;1.60;;;;;;;;;;4990355;28;20042;-64
2022/11/15 15:02:16;;;;;;;4.00;1.33;;;;;;;;;;4980036;28;20039;-64
2022/11/15 15:04:42;;;;;;;4.30;1.70;;;;;;;;;;4978459;28;20057;-66
2022/11/15 15:07:07;;;;;;;3.95;1.40;;;;;;;;;;4991924;28;20419;-64
2022/11/15 15:09:32;;;;;;;4.20;1.70;;;;;;;;;;4991961;28;20030;-64
2022/11/15 15:11:58;;;;;;;3.95;1.60;;;;;;;;;;4992982;28;20117;-65